createdAt,value
2023-09-10T00:02:03.356Z,79.73
2023-09-10T00:07:11.617Z,79.80
2023-09-10T00:12:17.310Z,79.74
2023-09-10T00:17:22.991Z,79.74
2023-09-10T00:22:29.949Z,79.81
2023-09-10T00:27:35.698Z,79.46
2023-09-10T00:32:41.376Z,79.72
2023-09-10T00:37:47.584Z,79.76
2023-09-10T00:42:53.288Z,79.87
2023-09-10T00:47:59.166Z,79.62
2023-09-10T00:53:05.894Z,80.38
2023-09-10T00:58:16.032Z,79.98
2023-09-10T01:03:28.682Z,79.64
2023-09-10T01:08:39.020Z,79.38
2023-09-10T01:14:20.279Z,79.19
2023-09-10T01:19:50.067Z,79.32
2023-09-10T01:25:01.013Z,79.32
2023-09-10T01:30:07.042Z,79.48
2023-09-10T01:35:18.337Z,79.21
2023-09-10T01:40:29.828Z,79.12
2023-09-10T01:45:39.117Z,79.00
2023-09-10T01:50:46.870Z,79.00
2023-09-10T01:56:05.520Z,79.24
2023-09-10T02:01:21.757Z,79.04
2023-09-10T02:06:27.823Z,79.37
2023-09-10T02:11:33.643Z,79.18
2023-09-10T02:16:41.779Z,78.56
2023-09-10T02:21:47.706Z,78.39
2023-09-10T02:26:53.790Z,78.19
2023-09-10T02:31:59.226Z,78.27
2023-09-10T02:37:05.474Z,78.34
2023-09-10T02:42:11.923Z,78.33
2023-09-10T02:47:18.569Z,78.32
2023-09-10T02:53:33.492Z,77.93
2023-09-10T02:59:00.109Z,78.15
2023-09-10T03:04:11.525Z,76.90
2023-09-10T03:09:25.853Z,77.64
2023-09-10T03:14:30.933Z,77.46
2023-09-10T03:19:38.029Z,77.40
2023-09-10T03:24:43.368Z,77.37
2023-09-10T03:29:48.949Z,77.42
2023-09-10T03:34:54.558Z,77.76
2023-09-10T03:40:00.055Z,76.91
2023-09-10T03:45:05.484Z,76.91
2023-09-10T03:50:14.187Z,76.81
2023-09-10T03:55:19.472Z,76.16
2023-09-10T04:00:25.960Z,77.22
2023-09-10T04:05:31.607Z,76.19
2023-09-10T04:10:36.845Z,76.79
2023-09-10T04:15:42.628Z,76.96
2023-09-10T04:20:49.702Z,76.68
2023-09-10T04:25:54.943Z,76.54
2023-09-10T04:31:00.659Z,76.42
2023-09-10T04:36:07.339Z,76.81
2023-09-10T04:41:14.357Z,76.15
2023-09-10T04:46:21.561Z,76.04
2023-09-10T04:51:27.593Z,75.82
2023-09-10T04:56:33.319Z,76.19
2023-09-10T05:01:39.755Z,75.92
2023-09-10T05:06:47.555Z,75.66
2023-09-10T05:11:54.105Z,75.10
2023-09-10T05:17:02.368Z,75.11
2023-09-10T05:22:07.892Z,75.05
2023-09-10T05:27:16.305Z,74.88
2023-09-10T05:32:21.725Z,75.21
2023-09-10T05:37:27.332Z,75.37
2023-09-10T05:42:35.769Z,74.88
2023-09-10T05:47:41.227Z,74.62
2023-09-10T05:52:48.154Z,74.84
2023-09-10T05:57:57.823Z,75.37
2023-09-10T06:03:03.500Z,74.85
2023-09-10T06:08:09.208Z,75.59
2023-09-10T06:13:17.682Z,74.71
2023-09-10T06:18:24.301Z,75.15
2023-09-10T06:23:29.575Z,75.08
2023-09-10T06:28:36.907Z,74.52
2023-09-10T06:33:43.124Z,75.45
2023-09-10T06:38:50.464Z,74.82
2023-09-10T06:44:00.534Z,75.24
2023-09-10T06:49:24.893Z,74.87
2023-09-10T06:55:00.870Z,75.09
2023-09-10T07:00:10.517Z,75.17
2023-09-10T07:05:17.892Z,74.37
2023-09-10T07:29:45.339Z,75.21
2023-09-10T07:34:55.375Z,74.36
2023-09-10T07:40:00.679Z,74.53
2023-09-10T07:45:08.064Z,74.09
2023-09-10T07:50:15.008Z,74.22
2023-09-10T07:55:20.143Z,73.71
2023-09-10T08:00:27.709Z,73.58
2023-09-10T08:05:33.844Z,73.68
2023-09-10T08:10:39.966Z,73.86
2023-09-10T08:15:47.786Z,74.22
2023-09-10T08:20:54.665Z,74.00
2023-09-10T08:26:05.865Z,74.42
2023-09-10T08:31:13.987Z,74.57
2023-09-10T08:36:38.808Z,74.81
2023-09-10T08:42:00.840Z,74.87
2023-09-10T08:47:08.602Z,74.81
2023-09-10T08:52:15.520Z,75.18
2023-09-10T08:57:21.921Z,74.91
2023-09-10T09:02:29.448Z,74.75
2023-09-10T09:07:46.423Z,74.98
2023-09-10T09:13:00.573Z,74.66
2023-09-10T09:18:06.490Z,74.85
2023-09-10T09:23:48.045Z,74.70
2023-09-10T09:28:55.711Z,74.84
2023-09-10T09:34:01.370Z,74.62
2023-09-10T09:39:11.243Z,75.31
2023-09-10T09:44:18.371Z,75.01
2023-09-10T09:49:24.443Z,75.14
2023-09-10T09:54:31.149Z,75.75
2023-09-10T09:59:42.382Z,75.03
2023-09-10T10:04:52.897Z,75.03
2023-09-10T10:10:01.525Z,75.40
2023-09-10T10:15:10.232Z,75.33
2023-09-10T10:20:17.732Z,75.51
2023-09-10T10:25:24.798Z,75.53
2023-09-10T10:30:33.592Z,75.43
2023-09-10T10:35:46.039Z,75.36
2023-09-10T10:40:56.489Z,75.46
2023-09-10T10:46:05.784Z,75.48
2023-09-10T10:51:15.173Z,75.29
2023-09-10T10:56:22.225Z,75.38
2023-09-10T11:01:32.675Z,75.59
2023-09-10T11:06:58.258Z,75.34
2023-09-10T11:12:09.688Z,75.52
2023-09-10T11:17:29.750Z,75.52
2023-09-10T11:23:11.360Z,75.94
2023-09-10T11:29:13.697Z,75.88
2023-09-10T11:34:26.122Z,76.31
2023-09-10T11:39:34.415Z,76.21
2023-09-10T11:44:39.861Z,76.52
2023-09-10T11:49:46.144Z,76.44
2023-09-10T11:54:52.412Z,76.15
2023-09-10T12:00:08.482Z,76.50
2023-09-10T12:05:20.391Z,76.38
2023-09-10T12:10:24.933Z,76.19
2023-09-10T12:15:32.059Z,76.48
2023-09-10T12:20:39.065Z,76.64
2023-09-10T12:25:46.298Z,76.15
2023-09-10T12:30:52.645Z,76.15
2023-09-10T12:35:59.125Z,76.29
2023-09-10T12:41:04.437Z,76.70
2023-09-10T12:46:10.995Z,77.08
2023-09-10T12:51:16.686Z,76.92
2023-09-10T12:56:22.145Z,76.95
2023-09-10T13:01:28.462Z,77.15
2023-09-10T13:06:40.446Z,77.03
2023-09-10T13:11:49.399Z,76.92
2023-09-10T13:16:55.427Z,76.48
2023-09-10T13:22:01.629Z,76.99
2023-09-10T13:27:06.919Z,77.20
2023-09-10T13:32:11.382Z,76.99
2023-09-10T13:37:16.690Z,76.96
2023-09-10T13:42:24.310Z,77.32
2023-09-10T13:47:31.112Z,77.42
2023-09-10T13:52:36.399Z,77.38
2023-09-10T13:57:42.826Z,77.26
2023-09-10T14:02:50.949Z,77.63
2023-09-10T14:07:56.216Z,77.79
2023-09-10T14:13:02.532Z,77.69
2023-09-10T14:18:09.011Z,77.64
2023-09-10T14:23:17.268Z,77.75
2023-09-10T14:28:27.037Z,76.96
2023-09-10T14:33:34.212Z,77.62
2023-09-10T14:38:39.642Z,77.68
2023-09-10T14:43:44.929Z,77.67
2023-09-10T14:48:50.255Z,76.92
2023-09-10T14:53:55.493Z,77.17
2023-09-10T14:59:00.874Z,77.51
2023-09-10T15:04:10.773Z,77.48
2023-09-10T15:09:16.934Z,77.62
2023-09-10T15:14:22.020Z,77.96
2023-09-10T15:19:29.658Z,77.85
2023-09-10T15:24:39.010Z,77.72
2023-09-10T15:29:44.347Z,77.94
2023-09-10T15:34:49.356Z,77.79
2023-09-10T15:39:54.423Z,77.62
2023-09-10T15:44:59.912Z,77.57
2023-09-10T15:50:05.617Z,77.60
2023-09-10T15:55:11.553Z,77.71
2023-09-10T16:00:19.414Z,77.79
2023-09-10T16:05:25.976Z,77.58
2023-09-10T16:10:31.778Z,77.80
2023-09-10T16:15:36.787Z,77.46
2023-09-10T16:20:42.124Z,77.65
2023-09-10T16:25:48.930Z,77.70
2023-09-10T16:30:54.533Z,77.39
2023-09-10T16:35:59.568Z,77.62
2023-09-10T16:41:05.300Z,77.63
2023-09-10T16:46:13.874Z,77.81
2023-09-10T16:51:20.959Z,77.61
2023-09-10T16:56:29.302Z,77.67
2023-09-10T17:01:39.265Z,77.52
2023-09-10T17:06:47.732Z,77.52
2023-09-10T17:11:53.996Z,77.59
2023-09-10T17:16:58.936Z,77.38
2023-09-10T17:22:03.880Z,77.88
2023-09-10T17:27:10.487Z,77.90
2023-09-10T17:32:18.006Z,78.11
2023-09-10T17:37:26.935Z,77.91
2023-09-10T17:42:34.325Z,78.12
2023-09-10T17:47:41.779Z,78.33
2023-09-10T17:52:46.801Z,78.17
2023-09-10T17:57:52.962Z,79.56
2023-09-10T18:02:58.151Z,78.56
2023-09-10T18:08:05.026Z,78.50
2023-09-10T18:13:11.231Z,78.32
2023-09-10T18:18:18.544Z,78.15
2023-09-10T18:23:23.409Z,78.37
2023-09-10T18:28:29.549Z,77.96
2023-09-10T18:33:41.318Z,78.12
2023-09-10T18:38:57.311Z,78.02
2023-09-10T18:44:02.189Z,78.27
2023-09-10T18:49:08.421Z,78.51
2023-09-10T18:54:13.600Z,78.59
2023-09-10T18:59:20.140Z,78.60
2023-09-10T19:04:26.920Z,78.46
2023-09-10T19:09:34.040Z,78.58
2023-09-10T19:14:38.978Z,78.58
2023-09-10T19:19:43.456Z,77.93
2023-09-10T19:24:48.224Z,78.48
2023-09-10T19:29:57.536Z,78.70
2023-09-10T19:35:02.608Z,78.19
2023-09-10T19:40:07.854Z,78.73
2023-09-10T19:45:19.576Z,78.76
2023-09-10T19:50:25.775Z,78.77
2023-09-10T19:55:31.475Z,78.94
2023-09-10T20:00:36.507Z,78.87
2023-09-10T20:05:45.769Z,78.91
2023-09-10T20:10:50.832Z,78.88
2023-09-10T20:15:56.975Z,78.80
2023-09-10T20:21:01.853Z,78.92
2023-09-10T20:26:07.910Z,78.95
2023-09-10T20:31:12.925Z,79.19
2023-09-10T20:36:18.143Z,79.09
2023-09-10T20:41:24.955Z,79.08
2023-09-10T20:46:32.050Z,79.10
2023-09-10T20:51:39.077Z,79.12
2023-09-10T20:56:48.904Z,79.22
2023-09-10T21:01:54.218Z,79.25
2023-09-10T21:06:59.701Z,79.22
2023-09-10T21:12:05.220Z,79.42
2023-09-10T21:17:15.615Z,79.37
2023-09-10T21:22:22.941Z,79.29
2023-09-10T21:27:29.411Z,79.21
2023-09-10T21:32:35.664Z,78.95
2023-09-10T21:37:42.552Z,79.26
2023-09-10T21:42:48.249Z,79.26
2023-09-10T21:47:54.656Z,79.09
2023-09-10T21:53:00.382Z,79.46
2023-09-10T21:58:13.984Z,78.88
2023-09-10T22:03:21.239Z,79.27
2023-09-10T22:08:28.497Z,79.53
2023-09-10T22:13:34.802Z,79.19
2023-09-10T22:18:40.653Z,80.58
2023-09-10T22:23:48.625Z,79.48
2023-09-10T22:28:54.375Z,79.30
2023-09-10T22:34:00.824Z,79.34
2023-09-10T22:39:08.964Z,79.50
2023-09-10T22:44:14.712Z,79.28
2023-09-10T22:49:21.228Z,79.41
2023-09-10T22:54:28.773Z,79.15
2023-09-10T22:59:34.661Z,79.25
2023-09-10T23:04:39.986Z,79.11
2023-09-10T23:09:45.987Z,79.28
2023-09-10T23:14:54.378Z,79.44
2023-09-10T23:20:02.526Z,79.20
2023-09-10T23:25:07.634Z,78.59
2023-09-10T23:30:16.317Z,78.58
2023-09-10T23:35:22.908Z,78.60
2023-09-10T23:40:28.190Z,78.70
2023-09-10T23:45:35.102Z,78.29
2023-09-10T23:50:40.792Z,78.08
2023-09-10T23:55:46.385Z,78.04
